createdAt,value
2019-04-11T00:02:53.433Z,101393.42
2019-04-11T00:07:59.816Z,101396.43
2019-04-11T00:13:18.256Z,101399.92
2019-04-11T00:18:12.916Z,101403.18
2019-04-11T00:23:18.783Z,101400.59
2019-04-11T00:28:24.351Z,101403.14
2019-04-11T00:33:30.027Z,101401.41
2019-04-11T00:38:36.134Z,101403.67
2019-04-11T00:43:43.808Z,101404.76
2019-04-11T00:48:48.863Z,101410.50
2019-04-11T00:53:54.267Z,101409.22
2019-04-11T00:59:00.246Z,101414.48
2019-04-11T01:04:05.899Z,101412.14
2019-04-11T01:09:12.486Z,101414.64
2019-04-11T01:14:18.088Z,101418.19
2019-04-11T01:19:24.740Z,101421.73
2019-04-11T01:24:31.434Z,101423.83
2019-04-11T01:29:37.722Z,101428.19
2019-04-11T01:34:43.272Z,101429.56
2019-04-11T01:40:01.251Z,101430.19
2019-04-11T01:45:09.546Z,101433.25
2019-04-11T01:50:18.740Z,101435.52
2019-04-11T01:55:24.292Z,101438.73
2019-04-11T02:00:48.580Z,101442.59
2019-04-11T02:05:54.360Z,101444.11
2019-04-11T02:10:59.783Z,101443.52
2019-04-11T02:16:05.325Z,101455.02
2019-04-11T02:21:11.564Z,101462.71
2019-04-11T02:26:25.149Z,101464.58
2019-04-11T02:31:31.201Z,101470.13
2019-04-11T02:36:38.496Z,101471.23
2019-04-11T02:41:44.542Z,101474.56
2019-04-11T02:47:00.240Z,101483.49
2019-04-11T02:51:58.608Z,101490.39
2019-04-11T02:57:05.579Z,101488.44
2019-04-11T03:02:13.541Z,101492.36
2019-04-11T03:07:18.349Z,101495.15
2019-04-11T03:12:24.182Z,101494.44
2019-04-11T03:17:36.136Z,101492.95
2019-04-11T03:22:38.304Z,101500.55
2019-04-11T03:27:45.108Z,101503.06
2019-04-11T03:38:19.421Z,101497.64
2019-04-11T03:43:16.496Z,101504.92
2019-04-11T03:48:27.603Z,101504.13
2019-04-11T03:53:21.504Z,101510.09
2019-04-11T03:58:26.544Z,101517.87
2019-04-11T04:03:31.957Z,101525.24
2019-04-11T04:08:38.649Z,101527.78
2019-04-11T04:13:50.246Z,101541.31
2019-04-11T04:19:05.224Z,101542.61
2019-04-11T04:24:34.797Z,101548.42
2019-04-11T04:29:38.269Z,101554.12
2019-04-11T04:34:44.454Z,101560.25
2019-04-11T04:40:12.170Z,101565.43
2019-04-11T04:44:58.763Z,101570.86
2019-04-11T04:50:06.202Z,101573.18
2019-04-11T04:55:12.906Z,101578.81
2019-04-11T05:00:19.380Z,101588.09
2019-04-11T05:05:27.259Z,101588.05
2019-04-11T05:10:33.517Z,101593.17
2019-04-11T05:15:39.000Z,101597.79
2019-04-11T05:20:44.460Z,101601.45
2019-04-11T05:25:50.857Z,101608.22
2019-04-11T05:30:56.333Z,101607.95
2019-04-11T05:36:01.756Z,101615.12
2019-04-11T05:41:12.036Z,101614.72
2019-04-11T05:46:26.059Z,101618.84
2019-04-11T05:51:23.528Z,101614.80
2019-04-11T05:56:31.349Z,101622.86
2019-04-11T06:01:42.529Z,101624.86
2019-04-11T06:07:01.628Z,101625.38
2019-04-11T06:12:27.801Z,101622.02
2019-04-11T06:17:34.277Z,101616.48
2019-04-11T06:22:45.608Z,101613.55
2019-04-11T06:28:04.512Z,101601.11
2019-04-11T06:33:20.512Z,101593.80
2019-04-11T06:38:46.811Z,101585.17
2019-04-11T06:44:14.358Z,101592.69
2019-04-11T06:49:43.330Z,101584.69
2019-04-11T06:55:08.707Z,101581.79
2019-04-11T07:00:14.753Z,101589.14
2019-04-11T07:05:20.434Z,101585.37
2019-04-11T07:10:31.180Z,101584.14
2019-04-11T07:15:46.314Z,101582.27
2019-04-11T07:21:08.970Z,101583.83
2019-04-11T07:26:25.585Z,101590.39
2019-04-11T07:31:54.733Z,101592.13
2019-04-11T07:37:18.856Z,101589.39
2019-04-11T07:42:49.828Z,101592.91
2019-04-11T07:48:02.802Z,101593.50
2019-04-11T07:53:08.768Z,101594.36
2019-04-11T07:58:21.641Z,101585.86
2019-04-11T08:03:44.891Z,101595.76
2019-04-11T08:09:08.146Z,101579.72
2019-04-11T08:14:42.472Z,101586.03
2019-04-11T08:20:10.022Z,101586.96
2019-04-11T08:25:47.398Z,101583.60
2019-04-11T08:31:21.573Z,101586.16
2019-04-11T08:37:05.290Z,101590.14
2019-04-11T08:42:29.938Z,101586.00
2019-04-11T08:47:47.555Z,101581.42
2019-04-11T08:53:27.159Z,101578.75
2019-04-11T08:58:57.464Z,101580.12
2019-04-11T09:04:15.628Z,101583.11
2019-04-11T09:09:39.679Z,101580.36
2019-04-11T09:15:12.702Z,101605.24
2019-04-11T09:20:38.086Z,101596.70
2019-04-11T09:26:20.400Z,101585.75
2019-04-11T09:31:45.659Z,101581.22
2019-04-11T09:37:13.950Z,101597.81
2019-04-11T09:42:45.596Z,101590.41
2019-04-11T09:48:29.355Z,101598.83
2019-04-11T09:53:36.674Z,101596.37
2019-04-11T09:58:42.323Z,101615.80
2019-04-11T10:03:48.669Z,101606.69
2019-04-11T10:08:57.637Z,101603.22
2019-04-11T10:14:11.389Z,101613.63
2019-04-11T10:19:38.258Z,101610.00
2019-04-11T10:25:07.575Z,101618.48
2019-04-11T10:30:41.916Z,101610.83
2019-04-11T10:36:05.023Z,101630.73
2019-04-11T10:41:25.312Z,101625.97
2019-04-11T10:46:49.637Z,101629.78
2019-04-11T10:52:16.589Z,101629.98
2019-04-11T10:57:44.638Z,101624.30
2019-04-11T11:03:24.418Z,101621.91
2019-04-11T11:08:43.667Z,101626.08
2019-04-11T11:14:23.073Z,101623.77
2019-04-11T11:19:59.646Z,101622.22
2019-04-11T11:25:13.644Z,101611.37
2019-04-11T11:30:37.659Z,101617.12
2019-04-11T11:36:09.976Z,101617.03
2019-04-11T11:41:49.017Z,101614.69
2019-04-11T11:47:16.048Z,101612.98
2019-04-11T11:52:45.515Z,101612.37
2019-04-11T11:58:04.290Z,101608.58
2019-04-11T12:03:23.420Z,101605.23
2019-04-11T12:08:58.148Z,101603.78
2019-04-11T12:14:22.621Z,101593.55
2019-04-11T12:19:44.674Z,101594.34
2019-04-11T12:24:52.426Z,101588.33
2019-04-11T12:30:30.505Z,101586.09
2019-04-11T12:35:42.810Z,101587.35
2019-04-11T12:41:22.165Z,101588.36
2019-04-11T12:46:55.062Z,101582.79
2019-04-11T12:52:17.802Z,101574.77
2019-04-11T12:57:30.749Z,101573.55
2019-04-11T13:03:00.836Z,101569.83
2019-04-11T13:08:40.174Z,101565.43
2019-04-11T13:13:54.198Z,101558.75
2019-04-11T13:19:21.661Z,101559.87
2019-04-11T13:24:54.762Z,101550.17
2019-04-11T13:30:19.134Z,101558.66
2019-04-11T13:35:52.232Z,101549.31
2019-04-11T13:41:14.286Z,101553.63
2019-04-11T13:46:47.929Z,101542.73
2019-04-11T13:52:15.137Z,101540.55
2019-04-11T13:57:58.009Z,101538.33
2019-04-11T14:03:28.543Z,101543.16
2019-04-11T14:08:40.855Z,101527.95
2019-04-11T14:13:46.725Z,101526.98
2019-04-11T14:19:02.877Z,101522.95
2019-04-11T14:24:25.616Z,101522.99
2019-04-11T14:29:37.829Z,101521.52
2019-04-11T14:35:05.581Z,101521.61
2019-04-11T14:40:33.234Z,101512.22
2019-04-11T14:45:58.013Z,101511.89
2019-04-11T14:51:15.845Z,101514.80
2019-04-11T14:56:21.791Z,101513.31
2019-04-11T15:01:28.194Z,101513.82
2019-04-11T15:06:40.449Z,101511.70
2019-04-11T15:12:17.833Z,101517.71
2019-04-11T15:17:29.507Z,101522.83
2019-04-11T15:22:42.388Z,101521.23
2019-04-11T15:28:00.720Z,101521.84
2019-04-11T15:33:40.090Z,101514.41
2019-04-11T15:39:00.089Z,101517.98
2019-04-11T15:44:24.809Z,101523.41
2019-04-11T15:49:47.331Z,101524.13
2019-04-11T15:55:13.674Z,101527.19
2019-04-11T16:00:36.315Z,101528.33
2019-04-11T16:06:12.584Z,101536.92
2019-04-11T16:11:42.930Z,101541.48
2019-04-11T16:17:07.426Z,101538.05
2019-04-11T16:22:42.992Z,101540.49
2019-04-11T16:28:07.872Z,101538.33
2019-04-11T16:33:31.177Z,101541.06
2019-04-11T16:38:42.906Z,101539.49
2019-04-11T16:43:54.644Z,101543.59
2019-04-11T16:48:58.907Z,101552.48
2019-04-11T16:54:04.362Z,101553.70
2019-04-11T16:59:09.809Z,101560.52
2019-04-11T17:04:15.480Z,101562.39
2019-04-11T17:09:30.970Z,101559.23
2019-04-11T17:14:36.492Z,101570.23
2019-04-11T17:19:41.886Z,101579.67
2019-04-11T17:24:48.106Z,101573.87
2019-04-11T17:29:55.408Z,101580.96
2019-04-11T17:35:01.914Z,101591.06
2019-04-11T17:40:07.965Z,101586.34
2019-04-11T17:45:13.593Z,101597.23
2019-04-11T17:50:19.079Z,101608.36
2019-04-11T17:55:24.669Z,101607.47
2019-04-11T18:00:32.523Z,101611.97
2019-04-11T18:05:38.031Z,101622.19
2019-04-11T18:10:43.580Z,101628.97
2019-04-11T18:15:49.200Z,101647.34
2019-04-11T18:20:54.632Z,101649.97
2019-04-11T18:26:00.156Z,101655.95
2019-04-11T18:31:05.582Z,101662.47
2019-04-11T18:36:11.256Z,101675.02
2019-04-11T18:41:16.673Z,101678.56
2019-04-11T18:46:22.113Z,101684.20
2019-04-11T18:51:30.265Z,101688.08
2019-04-11T18:56:34.701Z,101698.56
2019-04-11T19:01:40.224Z,101705.71
2019-04-11T19:06:45.860Z,101711.95
2019-04-11T19:11:51.612Z,101726.72
2019-04-11T19:16:57.171Z,101725.20
2019-04-11T19:22:02.569Z,101725.94
2019-04-11T19:27:08.118Z,101733.95
2019-04-11T19:32:13.578Z,101730.67
2019-04-11T19:37:19.044Z,101731.77
2019-04-11T19:42:24.667Z,101729.59
2019-04-11T19:47:30.158Z,101738.53
2019-04-11T19:52:45.192Z,101740.47
2019-04-11T19:57:42.800Z,101737.89
2019-04-11T20:02:48.212Z,101744.89
2019-04-11T20:07:53.721Z,101737.51
2019-04-11T20:13:01.865Z,101739.58
2019-04-11T20:18:07.640Z,101737.14
2019-04-11T20:23:13.041Z,101734.63
2019-04-11T20:28:19.879Z,101737.05
2019-04-11T20:33:27.220Z,101746.90
2019-04-11T20:38:32.833Z,101752.06
2019-04-11T20:43:38.365Z,101748.78
2019-04-11T20:48:43.791Z,101747.48
2019-04-11T20:53:49.491Z,101746.22
2019-04-11T20:58:54.959Z,101753.30
2019-04-11T21:04:04.535Z,101768.30
2019-04-11T21:09:11.434Z,101760.10
2019-04-11T21:14:17.213Z,101765.63
2019-04-11T21:19:23.779Z,101768.44
2019-04-11T21:24:30.958Z,101779.98
2019-04-11T21:29:36.659Z,101780.25
2019-04-11T21:34:42.223Z,101786.72
2019-04-11T21:39:47.704Z,101793.30
2019-04-11T21:44:53.302Z,101801.63
2019-04-11T21:49:58.871Z,101803.66
2019-04-11T21:55:04.524Z,101805.61
2019-04-11T22:00:16.524Z,101808.53
2019-04-11T22:05:22.086Z,101806.27
2019-04-11T22:10:27.525Z,101802.47
2019-04-11T22:15:32.997Z,101806.20
2019-04-11T22:20:38.467Z,101806.52
2019-04-11T22:25:43.947Z,101812.17
2019-04-11T22:30:49.607Z,101810.34
2019-04-11T22:35:57.003Z,101816.41
2019-04-11T22:41:02.757Z,101815.50
2019-04-11T22:46:12.003Z,101821.56
2019-04-11T22:51:15.561Z,101823.83
2019-04-11T22:56:21.115Z,101822.02
2019-04-11T23:01:26.651Z,101820.87
2019-04-11T23:06:32.290Z,101820.37
2019-04-11T23:11:37.967Z,101821.95
2019-04-11T23:16:44.182Z,101826.77
2019-04-11T23:21:50.183Z,101823.95
2019-04-11T23:26:55.764Z,101830.19
2019-04-11T23:32:01.176Z,101827.44
2019-04-11T23:37:06.643Z,101835.14
2019-04-11T23:42:12.271Z,101837.87
2019-04-11T23:47:20.085Z,101844.60
2019-04-11T23:52:26.820Z,101846.27
2019-04-11T23:57:32.331Z,101845.00
